LTCK/MSR METAR and TAF weather

Enter ICAO airport designator
Station Type Date Time Source
LTCK METAR 2019/12/07 12:50 UTC NOAA

LTCK 071250Z 28006KT 9999 SCT035 BKN080 06/M01 Q1016


Station Type Date Time Source
LTCK Decoded METAR 2019/12/07 12:50 UTC NOAA

Mus Tur-Afb , Turkey (LTCK) 38-45N 041-40E
Dec 07, 2019 - 07:50 AM EST / 2019.12.07 1250 UTC
Wind: from the W (280 degrees) at 7 MPH (6 KT):0
Visibility: greater than 7 mile(s):0
Sky conditions: mostly cloudy
Temperature: 42 F (6 C)
Dew Point: 30 F (-1 C)
Relative Humidity: 60%
Pressure (altimeter): 30.00 in. Hg (1016 hPa)
ob: LTCK 071250Z 28006KT 9999 SCT035 BKN080 06/M01 Q1016
cycle: 13

Station Type Date Time Source
LTCK TAF UTC NOAA

Error!

Example: see airport list